Terminal Aerodrome Forecast
Issued by NWS Green Bay, WI

Home | Current Version | Previous Version | Graphics & Text | Print | Product List | Glossary On
Versions: 1 2 3 4 5 6 7 8 9 10 11 12 13 14 15 16 17 18 19 20 21 22 23 24 25 26 27 28 29
000
FTUS43 KGRB 202300
TAFGRB
TAF
KGRB 202340Z 2100/2124 00000KT 5SM -SN BR OVC035
     FM210200 VRB03KT 5SM BR OVC028
     FM210700 VRB03KT 4SM -FZDZ BR OVC012
     FM211200 15004KT 4SM -FZDZ BR OVC009
     FM211700 16008KT 5SM -FZDZ BR OVC012
     FM212100 15011KT 5SM -DZ BR OVC015=

USA.gov is the U.S. government's official web portal to all federal, state and local government web resources and services.